sensor_id;sensor_type;location;lat;lon;timestamp;P1;durP1;ratioP1;P2;durP2;ratioP2
9264;SDS011;4669;49.594;10.958;2023-08-21T04:28:39;21.50;;;19.25;;
9264;SDS011;4669;49.594;10.958;2023-08-21T04:33:42;28.65;;;25.83;;
9264;SDS011;4669;49.594;10.958;2023-08-21T04:38:44;22.92;;;20.67;;
9264;SDS011;4669;49.594;10.958;2023-08-21T04:43:47;22.52;;;20.42;;
9264;SDS011;4669;49.594;10.958;2023-08-21T04:48:50;23.40;;;21.02;;
9264;SDS011;4669;49.594;10.958;2023-08-21T04:53:52;21.27;;;19.00;;
9264;SDS011;4669;49.594;10.958;2023-08-21T04:58:57;24.85;;;20.45;;
9264;SDS011;4669;49.594;10.958;2023-08-21T05:04:01;21.42;;;18.90;;
9264;SDS011;4669;49.594;10.958;2023-08-21T05:09:04;22.73;;;19.95;;
9264;SDS011;4669;49.594;10.958;2023-08-21T05:14:08;23.35;;;21.05;;
9264;SDS011;4669;49.594;10.958;2023-08-21T05:19:10;22.52;;;20.23;;
9264;SDS011;4669;49.594;10.958;2023-08-21T05:24:12;25.75;;;19.00;;
9264;SDS011;4669;49.594;10.958;2023-08-21T05:29:22;23.92;;;21.40;;
9264;SDS011;4669;49.594;10.958;2023-08-21T05:34:24;23.25;;;20.77;;
9264;SDS011;4669;49.594;10.958;2023-08-21T05:39:26;22.38;;;20.08;;
9264;SDS011;4669;49.594;10.958;2023-08-21T05:44:30;27.77;;;25.17;;
9264;SDS011;4669;49.594;10.958;2023-08-21T05:49:32;22.75;;;20.42;;
9264;SDS011;4669;49.594;10.958;2023-08-21T05:54:34;22.73;;;20.33;;
9264;SDS011;4669;49.594;10.958;2023-08-21T05:59:42;23.17;;;20.25;;
9264;SDS011;4669;49.594;10.958;2023-08-21T06:04:45;24.08;;;21.42;;
9264;SDS011;4669;49.594;10.958;2023-08-21T06:09:47;23.30;;;19.50;;
9264;SDS011;4669;49.594;10.958;2023-08-21T06:14:50;21.23;;;18.95;;
9264;SDS011;4669;49.594;10.958;2023-08-21T06:19:52;20.15;;;18.30;;
9264;SDS011;4669;49.594;10.958;2023-08-21T06:24:54;20.20;;;18.30;;
9264;SDS011;4669;49.594;10.958;2023-08-21T06:29:58;20.40;;;18.27;;
9264;SDS011;4669;49.594;10.958;2023-08-21T06:35:00;21.23;;;19.23;;
9264;SDS011;4669;49.594;10.958;2023-08-21T06:40:02;20.70;;;17.98;;
9264;SDS011;4669;49.594;10.958;2023-08-21T06:45:06;17.38;;;15.85;;
9264;SDS011;4669;49.594;10.958;2023-08-21T06:50:09;17.85;;;16.00;;
9264;SDS011;4669;49.594;10.958;2023-08-21T06:55:11;18.85;;;16.27;;
9264;SDS011;4669;49.594;10.958;2023-08-21T07:00:14;16.48;;;14.98;;
9264;SDS011;4669;49.594;10.958;2023-08-21T07:05:17;17.15;;;15.48;;
9264;SDS011;4669;49.594;10.958;2023-08-21T07:10:18;17.15;;;15.65;;
9264;SDS011;4669;49.594;10.958;2023-08-21T07:15:22;18.85;;;16.92;;
9264;SDS011;4669;49.594;10.958;2023-08-21T07:20:23;17.60;;;16.00;;
9264;SDS011;4669;49.594;10.958;2023-08-21T07:25:25;16.73;;;15.23;;
9264;SDS011;4669;49.594;10.958;2023-08-21T07:30:29;17.75;;;15.95;;
9264;SDS011;4669;49.594;10.958;2023-08-21T07:35:32;19.02;;;16.05;;
9264;SDS011;4669;49.594;10.958;2023-08-21T07:40:34;17.27;;;15.55;;
9264;SDS011;4669;49.594;10.958;2023-08-21T07:45:38;17.27;;;15.65;;
9264;SDS011;4669;49.594;10.958;2023-08-21T07:50:40;24.13;;;16.42;;
9264;SDS011;4669;49.594;10.958;2023-08-21T07:55:41;18.02;;;16.00;;
9264;SDS011;4669;49.594;10.958;2023-08-21T08:00:45;18.60;;;16.55;;
9264;SDS011;4669;49.594;10.958;2023-08-21T08:05:48;17.60;;;15.48;;
9264;SDS011;4669;49.594;10.958;2023-08-21T08:10:50;16.52;;;15.02;;
9264;SDS011;4669;49.594;10.958;2023-08-21T08:15:53;15.63;;;14.02;;
9264;SDS011;4669;49.594;10.958;2023-08-21T08:20:55;15.43;;;13.93;;
9264;SDS011;4669;49.594;10.958;2023-08-21T08:25:57;19.83;;;17.17;;
9264;SDS011;4669;49.594;10.958;2023-08-21T08:31:00;19.10;;;17.20;;
9264;SDS011;4669;49.594;10.958;2023-08-21T08:36:02;15.10;;;13.43;;
9264;SDS011;4669;49.594;10.958;2023-08-21T08:41:05;13.90;;;12.70;;
9264;SDS011;4669;49.594;10.958;2023-08-21T08:46:16;13.95;;;12.55;;
9264;SDS011;4669;49.594;10.958;2023-08-21T08:51:18;16.15;;;13.85;;
9264;SDS011;4669;49.594;10.958;2023-08-21T08:56:20;14.52;;;12.85;;
9264;SDS011;4669;49.594;10.958;2023-08-21T09:01:23;15.02;;;12.73;;
9264;SDS011;4669;49.594;10.958;2023-08-21T09:06:25;14.20;;;12.80;;
9264;SDS011;4669;49.594;10.958;2023-08-21T09:11:27;14.63;;;13.18;;
9264;SDS011;4669;49.594;10.958;2023-08-21T09:16:31;15.52;;;13.45;;
9264;SDS011;4669;49.594;10.958;2023-08-21T09:21:33;16.73;;;12.23;;
9264;SDS011;4669;49.594;10.958;2023-08-21T09:26:35;13.05;;;11.75;;
9264;SDS011;4669;49.594;10.958;2023-08-21T09:31:40;15.73;;;11.25;;
9264;SDS011;4669;49.594;10.958;2023-08-21T09:36:45;12.65;;;11.35;;
9264;SDS011;4669;49.594;10.958;2023-08-21T09:41:56;12.98;;;11.68;;
9264;SDS011;4669;49.594;10.958;2023-08-21T09:46:59;11.50;;;10.48;;
9264;SDS011;4669;49.594;10.958;2023-08-21T09:52:01;12.60;;;10.45;;
9264;SDS011;4669;49.594;10.958;2023-08-21T09:57:05;11.60;;;10.50;;
9264;SDS011;4669;49.594;10.958;2023-08-21T10:02:08;10.93;;;9.52;;
9264;SDS011;4669;49.594;10.958;2023-08-21T10:07:11;9.13;;;8.20;;
9264;SDS011;4669;49.594;10.958;2023-08-21T10:12:14;9.27;;;7.35;;
9264;SDS011;4669;49.594;10.958;2023-08-21T10:17:19;6.68;;;5.97;;
9264;SDS011;4669;49.594;10.958;2023-08-21T10:22:38;8.75;;;6.25;;
9264;SDS011;4669;49.594;10.958;2023-08-21T10:27:43;10.80;;;6.45;;
9264;SDS011;4669;49.594;10.958;2023-08-21T10:32:48;8.43;;;6.53;;
9264;SDS011;4669;49.594;10.958;2023-08-21T10:38:07;8.30;;;6.63;;
9264;SDS011;4669;49.594;10.958;2023-08-21T10:48:41;7.07;;;6.38;;
9264;SDS011;4669;49.594;10.958;2023-08-21T10:53:43;8.73;;;6.95;;
9264;SDS011;4669;49.594;10.958;2023-08-21T10:58:46;7.45;;;6.05;;
9264;SDS011;4669;49.594;10.958;2023-08-21T11:03:52;9.88;;;7.20;;
9264;SDS011;4669;49.594;10.958;2023-08-21T11:08:54;7.20;;;6.32;;
9264;SDS011;4669;49.594;10.958;2023-08-21T11:13:56;6.88;;;6.20;;
9264;SDS011;4669;49.594;10.958;2023-08-21T11:19:02;8.27;;;6.07;;
9264;SDS011;4669;49.594;10.958;2023-08-21T11:24:04;8.45;;;6.65;;
9264;SDS011;4669;49.594;10.958;2023-08-21T11:29:06;6.15;;;5.55;;
9264;SDS011;4669;49.594;10.958;2023-08-21T11:34:10;8.15;;;5.43;;
9264;SDS011;4669;49.594;10.958;2023-08-21T11:39:11;8.77;;;5.82;;
9264;SDS011;4669;49.594;10.958;2023-08-21T11:44:13;7.32;;;6.32;;
9264;SDS011;4669;49.594;10.958;2023-08-21T11:49:18;5.65;;;5.10;;
9264;SDS011;4669;49.594;10.958;2023-08-21T11:54:22;6.57;;;5.63;;
9264;SDS011;4669;49.594;10.958;2023-08-21T11:59:24;7.90;;;5.45;;
9264;SDS011;4669;49.594;10.958;2023-08-21T12:04:27;8.52;;;5.85;;
9264;SDS011;4669;49.594;10.958;2023-08-21T12:09:29;6.20;;;5.60;;
9264;SDS011;4669;49.594;10.958;2023-08-21T12:14:31;8.23;;;5.30;;
9264;SDS011;4669;49.594;10.958;2023-08-21T12:19:34;11.40;;;5.60;;
9264;SDS011;4669;49.594;10.958;2023-08-21T12:24:36;5.32;;;4.82;;
9264;SDS011;4669;49.594;10.958;2023-08-21T12:29:38;5.53;;;4.97;;
9264;SDS011;4669;49.594;10.958;2023-08-21T12:34:42;10.65;;;5.45;;
9264;SDS011;4669;49.594;10.958;2023-08-21T12:39:43;7.80;;;5.10;;
9264;SDS011;4669;49.594;10.958;2023-08-21T12:44:46;5.15;;;4.65;;
9264;SDS011;4669;49.594;10.958;2023-08-21T12:49:49;6.88;;;5.25;;
9264;SDS011;4669;49.594;10.958;2023-08-21T12:54:51;8.20;;;6.20;;
9264;SDS011;4669;49.594;10.958;2023-08-21T12:59:52;9.40;;;5.40;;
9264;SDS011;4669;49.594;10.958;2023-08-21T13:04:56;9.10;;;4.80;;
9264;SDS011;4669;49.594;10.958;2023-08-21T13:09:57;5.38;;;4.97;;
9264;SDS011;4669;49.594;10.958;2023-08-21T13:15:00;8.63;;;5.03;;
9264;SDS011;4669;49.594;10.958;2023-08-21T13:20:04;8.15;;;4.90;;
9264;SDS011;4669;49.594;10.958;2023-08-21T13:25:08;6.05;;;4.97;;
9264;SDS011;4669;49.594;10.958;2023-08-21T13:30:11;7.53;;;4.70;;
9264;SDS011;4669;49.594;10.958;2023-08-21T13:35:15;6.22;;;4.63;;
9264;SDS011;4669;49.594;10.958;2023-08-21T13:40:17;6.07;;;5.50;;
9264;SDS011;4669;49.594;10.958;2023-08-21T13:45:19;5.45;;;4.85;;
9264;SDS011;4669;49.594;10.958;2023-08-21T13:50:25;6.47;;;4.40;;
9264;SDS011;4669;49.594;10.958;2023-08-21T13:55:28;8.05;;;4.68;;
9264;SDS011;4669;49.594;10.958;2023-08-21T14:00:30;5.65;;;5.13;;
9264;SDS011;4669;49.594;10.958;2023-08-21T14:05:33;9.75;;;5.18;;
9264;SDS011;4669;49.594;10.958;2023-08-21T14:10:35;6.00;;;4.65;;
9264;SDS011;4669;49.594;10.958;2023-08-21T14:15:37;6.78;;;4.65;;
9264;SDS011;4669;49.594;10.958;2023-08-21T14:20:40;6.05;;;4.45;;
9264;SDS011;4669;49.594;10.958;2023-08-21T14:25:42;7.20;;;4.78;;
9264;SDS011;4669;49.594;10.958;2023-08-21T14:30:44;8.73;;;5.28;;
9264;SDS011;4669;49.594;10.958;2023-08-21T14:35:48;5.32;;;4.82;;
9264;SDS011;4669;49.594;10.958;2023-08-21T14:40:50;8.32;;;5.13;;
9264;SDS011;4669;49.594;10.958;2023-08-21T14:45:53;7.05;;;4.65;;
9264;SDS011;4669;49.594;10.958;2023-08-21T14:50:57;8.75;;;4.50;;
9264;SDS011;4669;49.594;10.958;2023-08-21T14:55:59;7.28;;;4.47;;
9264;SDS011;4669;49.594;10.958;2023-08-21T15:01:00;6.38;;;4.57;;
9264;SDS011;4669;49.594;10.958;2023-08-21T15:06:06;6.50;;;5.90;;
9264;SDS011;4669;49.594;10.958;2023-08-21T15:11:09;7.00;;;4.78;;
9264;SDS011;4669;49.594;10.958;2023-08-21T15:16:11;6.45;;;5.00;;
9264;SDS011;4669;49.594;10.958;2023-08-21T15:21:14;7.43;;;4.85;;
9264;SDS011;4669;49.594;10.958;2023-08-21T15:26:16;5.70;;;4.30;;
9264;SDS011;4669;49.594;10.958;2023-08-21T15:31:18;5.38;;;4.68;;
9264;SDS011;4669;49.594;10.958;2023-08-21T15:36:21;7.10;;;4.53;;
9264;SDS011;4669;49.594;10.958;2023-08-21T15:41:23;4.63;;;4.20;;
9264;SDS011;4669;49.594;10.958;2023-08-21T15:46:25;8.52;;;7.25;;
9264;SDS011;4669;49.594;10.958;2023-08-21T15:51:29;9.60;;;7.80;;
9264;SDS011;4669;49.594;10.958;2023-08-21T15:56:31;5.07;;;4.57;;
9264;SDS011;4669;49.594;10.958;2023-08-21T16:01:33;4.95;;;4.28;;
9264;SDS011;4669;49.594;10.958;2023-08-21T16:06:36;4.75;;;4.30;;
9264;SDS011;4669;49.594;10.958;2023-08-21T16:11:38;5.22;;;4.47;;
9264;SDS011;4669;49.594;10.958;2023-08-21T16:16:40;8.48;;;4.82;;
9264;SDS011;4669;49.594;10.958;2023-08-21T16:21:43;6.63;;;4.50;;
9264;SDS011;4669;49.594;10.958;2023-08-21T16:26:47;6.22;;;4.68;;
9264;SDS011;4669;49.594;10.958;2023-08-21T16:31:49;4.20;;;3.75;;
9264;SDS011;4669;49.594;10.958;2023-08-21T16:36:54;7.88;;;4.20;;
9264;SDS011;4669;49.594;10.958;2023-08-21T16:41:55;7.30;;;4.20;;
9264;SDS011;4669;49.594;10.958;2023-08-21T16:46:58;4.90;;;4.18;;
9264;SDS011;4669;49.594;10.958;2023-08-21T16:52:02;6.53;;;4.40;;
9264;SDS011;4669;49.594;10.958;2023-08-21T16:57:04;5.00;;;4.32;;
9264;SDS011;4669;49.594;10.958;2023-08-21T17:02:06;6.35;;;4.13;;
9264;SDS011;4669;49.594;10.958;2023-08-21T17:07:10;4.78;;;4.38;;
9264;SDS011;4669;49.594;10.958;2023-08-21T17:12:11;10.00;;;5.03;;
9264;SDS011;4669;49.594;10.958;2023-08-21T17:17:13;4.50;;;4.10;;
9264;SDS011;4669;49.594;10.958;2023-08-21T17:22:17;5.78;;;4.25;;
9264;SDS011;4669;49.594;10.958;2023-08-21T17:27:19;4.60;;;4.07;;
9264;SDS011;4669;49.594;10.958;2023-08-21T17:32:21;20.35;;;13.18;;
9264;SDS011;4669;49.594;10.958;2023-08-21T17:37:24;6.75;;;5.18;;
9264;SDS011;4669;49.594;10.958;2023-08-21T17:42:27;4.97;;;4.03;;
9264;SDS011;4669;49.594;10.958;2023-08-21T17:47:30;6.68;;;4.25;;
9264;SDS011;4669;49.594;10.958;2023-08-21T17:52:33;9.85;;;4.90;;
9264;SDS011;4669;49.594;10.958;2023-08-21T17:57:35;5.40;;;4.40;;
9264;SDS011;4669;49.594;10.958;2023-08-21T18:02:37;7.70;;;4.22;;
9264;SDS011;4669;49.594;10.958;2023-08-21T18:07:41;6.00;;;4.28;;
9264;SDS011;4669;49.594;10.958;2023-08-21T18:12:43;5.38;;;4.25;;
9264;SDS011;4669;49.594;10.958;2023-08-21T18:17:45;8.00;;;4.47;;
9264;SDS011;4669;49.594;10.958;2023-08-21T18:22:48;5.57;;;5.07;;
9264;SDS011;4669;49.594;10.958;2023-08-21T18:27:50;9.77;;;5.18;;
9264;SDS011;4669;49.594;10.958;2023-08-21T18:32:51;13.40;;;5.63;;
9264;SDS011;4669;49.594;10.958;2023-08-21T18:37:55;5.90;;;4.80;;
9264;SDS011;4669;49.594;10.958;2023-08-21T18:42:56;9.77;;;5.07;;
9264;SDS011;4669;49.594;10.958;2023-08-21T18:47:58;12.93;;;8.98;;
9264;SDS011;4669;49.594;10.958;2023-08-21T18:53:02;27.75;;;7.85;;
9264;SDS011;4669;49.594;10.958;2023-08-21T18:58:05;9.02;;;5.68;;
9264;SDS011;4669;49.594;10.958;2023-08-21T19:03:07;7.03;;;5.50;;
9264;SDS011;4669;49.594;10.958;2023-08-21T19:08:11;6.80;;;6.07;;
9264;SDS011;4669;49.594;10.958;2023-08-21T19:13:13;8.35;;;5.93;;
9264;SDS011;4669;49.594;10.958;2023-08-21T19:18:15;8.27;;;6.60;;
9264;SDS011;4669;49.594;10.958;2023-08-21T19:23:18;7.97;;;6.18;;
9264;SDS011;4669;49.594;10.958;2023-08-21T19:28:20;7.70;;;5.90;;
9264;SDS011;4669;49.594;10.958;2023-08-21T19:33:23;6.57;;;5.97;;
9264;SDS011;4669;49.594;10.958;2023-08-21T19:38:27;6.93;;;5.50;;
9264;SDS011;4669;49.594;10.958;2023-08-21T19:43:29;6.70;;;5.85;;
9264;SDS011;4669;49.594;10.958;2023-08-21T19:48:31;6.47;;;5.88;;
9264;SDS011;4669;49.594;10.958;2023-08-21T19:53:35;6.65;;;6.10;;
9264;SDS011;4669;49.594;10.958;2023-08-21T19:58:36;8.82;;;6.47;;
9264;SDS011;4669;49.594;10.958;2023-08-21T20:03:38;9.60;;;7.30;;
9264;SDS011;4669;49.594;10.958;2023-08-21T20:08:42;7.47;;;6.20;;
9264;SDS011;4669;49.594;10.958;2023-08-21T20:13:44;7.00;;;6.30;;
9264;SDS011;4669;49.594;10.958;2023-08-21T20:18:46;9.20;;;7.07;;
9264;SDS011;4669;49.594;10.958;2023-08-21T20:23:49;7.22;;;6.60;;
9264;SDS011;4669;49.594;10.958;2023-08-21T20:28:51;8.00;;;7.20;;
9264;SDS011;4669;49.594;10.958;2023-08-21T20:33:53;9.10;;;6.60;;
9264;SDS011;4669;49.594;10.958;2023-08-21T20:38:57;8.40;;;7.03;;
9264;SDS011;4669;49.594;10.958;2023-08-21T20:43:58;7.45;;;6.60;;
9264;SDS011;4669;49.594;10.958;2023-08-21T20:49:00;13.23;;;7.53;;
9264;SDS011;4669;49.594;10.958;2023-08-21T20:54:04;7.95;;;6.70;;
9264;SDS011;4669;49.594;10.958;2023-08-21T20:59:06;10.25;;;7.13;;
9264;SDS011;4669;49.594;10.958;2023-08-21T21:04:07;8.63;;;6.88;;
9264;SDS011;4669;49.594;10.958;2023-08-21T21:09:11;8.20;;;6.93;;
9264;SDS011;4669;49.594;10.958;2023-08-21T21:14:12;8.48;;;7.05;;
9264;SDS011;4669;49.594;10.958;2023-08-21T21:19:14;11.30;;;7.90;;
9264;SDS011;4669;49.594;10.958;2023-08-21T21:24:18;7.82;;;6.93;;
9264;SDS011;4669;49.594;10.958;2023-08-21T21:29:20;8.52;;;7.00;;
9264;SDS011;4669;49.594;10.958;2023-08-21T21:34:22;8.02;;;6.68;;
9264;SDS011;4669;49.594;10.958;2023-08-21T21:39:26;7.35;;;6.47;;
9264;SDS011;4669;49.594;10.958;2023-08-21T21:44:28;7.10;;;6.40;;
9264;SDS011;4669;49.594;10.958;2023-08-21T21:49:30;10.95;;;7.20;;
9264;SDS011;4669;49.594;10.958;2023-08-21T21:54:33;15.85;;;7.20;;
9264;SDS011;4669;49.594;10.958;2023-08-21T21:59:35;9.20;;;7.13;;
